Time;durP1;ratioP1;P1;durP2;ratioP2;P2;SDS_P1;SDS_P2;PMS_P1;PMS_P2;Temp;Humidity;BMP_temperature;BMP_pressure;BME280_temperature;BME280_humidity;BME280_pressure;Samples;Min_cycle;Max_cycle;Signal;HPM_P1;HPM_P2
2023/11/12 00:00:22;;;;;;;;;;;;;;;5.33;100.00;100275.09;6212468;23;20202;-81
2023/11/12 00:03:03;;;;;;;;;;;;;;;5.22;100.00;100267.47;6212910;23;19916;-81
2023/11/12 00:05:28;;;;;;;;;;;;;;;5.22;100.00;100271.00;6214232;23;20317;-81
2023/11/12 00:08:09;;;;;;;;;;;;;;;5.26;100.00;100269.63;6214975;23;19955;-81
2023/11/12 00:10:34;;;;;;;;;;;;;;;5.22;100.00;100268.31;6213687;23;19962;-81
2023/11/12 00:16:32;;;;;;;;;;;;;;;5.26;100.00;100263.44;6212813;23;19923;-81
2023/11/12 00:22:09;;;;;;;;;;;;;;;5.29;100.00;100261.28;6231139;23;19919;-81
2023/11/12 00:24:34;;;;;;;;;;;;;;;5.34;100.00;100258.06;6210480;23;19995;-81
2023/11/12 00:26:59;;;;;;;;;;;;;;;5.34;100.00;100266.09;6215804;23;20456;-81
2023/11/12 00:29:25;;;;;;;;;;;;;;;5.24;100.00;100258.31;6214707;23;19912;-81
2023/11/12 00:31:53;;;;;;;;;;;;;;;5.30;100.00;100254.91;6213236;23;19912;-81
2023/11/12 00:34:18;;;;;;;;;;;;;;;5.32;100.00;100262.75;6215919;23;19912;-81
2023/11/12 00:36:43;;;;;;;;;;;;;;;5.29;100.00;100258.59;6215293;23;19944;-80
2023/11/12 00:39:12;;;;;;;;;;;;;;;5.31;100.00;100248.56;6214762;23;19943;-81
2023/11/12 00:41:40;;;;;;;;;;;;;;;5.28;100.00;100253.44;6188065;23;19912;-81
2023/11/12 00:44:06;;;;;;;;;;;;;;;5.23;100.00;100248.63;6215713;23;19911;-81
2023/11/12 00:46:31;;;;;;;;;;;;;;;5.21;100.00;100247.97;6213065;23;20236;-81
2023/11/12 00:48:57;;;;;;;;;;;;;;;5.20;100.00;100254.31;6214085;23;19908;-80
2023/11/12 00:51:23;;;;;;;;;;;;;;;5.17;100.00;100241.31;6213686;23;19922;-80
2023/11/12 00:53:48;;;;;;;;;;;;;;;5.19;100.00;100241.97;6213397;23;19916;-80
2023/11/12 00:56:14;;;;;;;;;;;;;;;5.26;100.00;100244.78;6213965;23;19963;-81
2023/11/12 00:58:39;;;;;;;;;;;;;;;5.24;100.00;100250.28;6213414;23;19912;-80
2023/11/12 01:01:04;;;;;;;;;;;;;;;5.19;100.00;100247.31;6212234;23;19994;-80
2023/11/12 01:03:32;;;;;;;;;;;;;;;5.23;100.00;100245.13;6213867;23;19912;-80
2023/11/12 01:05:58;;;;;;;;;;;;;;;5.22;100.00;100241.63;6213583;23;19912;-80
2023/11/12 01:08:23;;;;;;;;;;;;;;;5.27;100.00;100239.28;6215765;23;19946;-81
2023/11/12 01:10:48;;;;;;;;;;;;;;;5.20;100.00;100240.97;6214947;23;19912;-80
2023/11/12 01:13:13;;;;;;;;;;;;;;;5.17;100.00;100238.66;6215097;23;20304;-80
2023/11/12 01:15:42;;;;;;;;;;;;;;;5.16;100.00;100234.31;6211653;22;19919;-81
2023/11/12 01:18:07;;;;;;;;;;;;;;;5.18;100.00;100236.84;6135130;23;20015;-80
2023/11/12 01:20:32;;;;;;;;;;;;;;;5.24;100.00;100246.78;6212708;23;20011;-80
2023/11/12 01:22:57;;;;;;;;;;;;;;;5.27;100.00;100244.59;6212487;23;19919;-80
2023/11/12 01:28:29;;;;;;;;;;;;;;;5.12;100.00;100241.00;6215125;23;19934;-81
2023/11/12 01:31:31;;;;;;;;;;;;;;;5.08;100.00;100234.41;6216333;23;19959;-81
2023/11/12 01:34:22;;;;;;;;;;;;;;;4.97;100.00;100231.09;6222069;23;19938;-82
2023/11/12 01:37:20;;;;;;;;;;;;;;;4.89;100.00;100225.81;6219091;23;19919;-81
2023/11/12 01:39:47;;;;;;;;;;;;;;;4.84;100.00;100233.50;6216971;23;19912;-81
2023/11/12 01:42:13;;;;;;;;;;;;;;;4.93;100.00;100229.81;6215997;23;19943;-81
2023/11/12 01:44:38;;;;;;;;;;;;;;;4.99;100.00;100230.94;6215994;23;20313;-82
2023/11/12 01:47:04;;;;;;;;;;;;;;;4.97;100.00;100222.28;6215115;23;19959;-82
2023/11/12 01:49:29;;;;;;;;;;;;;;;4.96;100.00;100229.44;6215755;23;19919;-82
2023/11/12 01:51:55;;;;;;;;;;;;;;;5.01;100.00;100229.75;6217356;23;19912;-82
2023/11/12 01:54:20;;;;;;;;;;;;;;;5.00;100.00;100222.75;6215647;23;19912;-81
2023/11/12 01:56:45;;;;;;;;;;;;;;;4.97;100.00;100220.44;6217181;23;20375;-82
2023/11/12 01:59:11;;;;;;;;;;;;;;;4.98;100.00;100221.28;6216870;23;20392;-82
2023/11/12 02:01:37;;;;;;;;;;;;;;;4.96;100.00;100224.09;6214971;23;19920;-82
2023/11/12 02:04:02;;;;;;;;;;;;;;;5.01;100.00;100219.06;6187567;23;20400;-81
2023/11/12 02:06:28;;;;;;;;;;;;;;;4.98;100.00;100214.09;6189880;23;20240;-82
2023/11/12 02:08:55;;;;;;;;;;;;;;;4.90;100.00;100216.81;6213639;23;20238;-81
2023/11/12 02:11:22;;;;;;;;;;;;;;;4.92;100.00;100217.47;6188981;23;19919;-81
2023/11/12 02:13:47;;;;;;;;;;;;;;;4.94;100.00;100218.09;6216294;23;19916;-82
2023/11/12 02:16:12;;;;;;;;;;;;;;;4.90;100.00;100222.16;6186093;23;19916;-82
2023/11/12 02:18:37;;;;;;;;;;;;;;;4.81;100.00;100212.53;6184939;23;19998;-82
2023/11/12 02:21:03;;;;;;;;;;;;;;;4.80;100.00;100208.19;6212900;23;19974;-82
2023/11/12 02:23:29;;;;;;;;;;;;;;;4.79;100.00;100222.53;6211581;23;19927;-82
2023/11/12 02:25:55;;;;;;;;;;;;;;;4.74;100.00;100212.41;6212600;23;20364;-82
2023/11/12 02:28:20;;;;;;;;;;;;;;;4.74;100.00;100214.25;6186337;23;19912;-82
2023/11/12 02:30:46;;;;;;;;;;;;;;;4.68;100.00;100223.75;6221740;23;19956;-82
2023/11/12 02:33:11;;;;;;;;;;;;;;;4.62;100.00;100225.28;6231073;23;19920;-82
2023/11/12 02:35:42;;;;;;;;;;;;;;;4.66;100.00;100226.59;6212203;23;20369;-82
2023/11/12 02:38:07;;;;;;;;;;;;;;;4.62;100.00;100227.94;6210356;23;19912;-82
2023/11/12 02:40:32;;;;;;;;;;;;;;;4.53;100.00;100227.16;6212189;23;19978;-81
2023/11/12 02:42:58;;;;;;;;;;;;;;;4.55;100.00;100235.00;6212323;23;19999;-82
2023/11/12 02:45:23;;;;;;;;;;;;;;;4.53;100.00;100237.00;6211437;23;19958;-82
2023/11/12 02:47:48;;;;;;;;;;;;;;;4.53;100.00;100235.13;6211226;23;19912;-82
2023/11/12 02:50:27;;;;;;;;;;;;;;;4.54;100.00;100242.13;6212701;23;19912;-82
2023/11/12 02:52:53;;;;;;;;;;;;;;;4.52;100.00;100238.81;6211469;23;20257;-83
2023/11/12 02:55:18;;;;;;;;;;;;;;;4.51;100.00;100233.66;6212009;23;19912;-82
2023/11/12 02:57:44;;;;;;;;;;;;;;;4.49;100.00;100239.19;6213685;23;19995;-81
2023/11/12 03:00:09;;;;;;;;;;;;;;;4.50;100.00;100237.31;6115027;23;2331422;-81
2023/11/12 03:02:35;;;;;;;;;;;;;;;4.49;100.00;100243.66;6215857;23;19916;-81
2023/11/12 03:05:00;;;;;;;;;;;;;;;4.48;100.00;100245.50;6213860;23;19916;-81
2023/11/12 03:07:26;;;;;;;;;;;;;;;4.42;100.00;100237.34;6211968;23;19991;-81
2023/11/12 03:09:57;;;;;;;;;;;;;;;4.36;100.00;100245.03;6213515;23;19912;-81
2023/11/12 03:15:31;;;;;;;;;;;;;;;4.38;100.00;100251.03;6214664;23;19942;-81
2023/11/12 03:18:15;;;;;;;;;;;;;;;4.36;100.00;100249.53;6214813;23;20003;-81
2023/11/12 03:20:46;;;;;;;;;;;;;;;4.35;100.00;100246.03;6215814;23;19982;-82
2023/11/12 03:23:23;;;;;;;;;;;;;;;4.27;100.00;100243.38;6215864;23;19912;-81
2023/11/12 03:25:49;;;;;;;;;;;;;;;4.26;100.00;100241.72;6214214;23;19912;-81
2023/11/12 03:28:14;;;;;;;;;;;;;;;4.27;100.00;100237.25;6189861;23;19912;-82
2023/11/12 03:37:19;;;;;;;;;;;;;;;4.21;100.00;100225.44;6184630;23;19943;-81
2023/11/12 03:39:51;;;;;;;;;;;;;;;4.19;100.00;100220.25;6183552;23;19912;-81
2023/11/12 03:45:19;;;;;;;;;;;;;;;4.14;100.00;100219.97;6184015;23;20007;-82
2023/11/12 03:50:47;;;;;;;;;;;;;;;4.09;100.00;100220.44;6184834;23;20047;-82
2023/11/12 03:53:30;;;;;;;;;;;;;;;4.04;100.00;100224.63;6183941;23;19940;-82
2023/11/12 03:55:56;;;;;;;;;;;;;;;4.01;100.00;100225.81;6184150;23;19913;-82
2023/11/12 04:04:27;;;;;;;;;;;;;;;4.01;100.00;100219.63;6183993;23;19919;-82
2023/11/12 04:06:52;;;;;;;;;;;;;;;3.97;100.00;100213.81;6184850;23;19912;-82
2023/11/12 04:12:34;;;;;;;;;;;;;;;4.12;100.00;100218.44;6212703;23;20002;-82
2023/11/12 04:15:17;;;;;;;;;;;;;;;4.20;100.00;100221.13;6216486;23;19912;-82
2023/11/12 04:17:46;;;;;;;;;;;;;;;4.24;100.00;100223.25;6216145;23;20046;-82
2023/11/12 04:20:17;;;;;;;;;;;;;;;4.23;100.00;100223.44;6218517;23;19960;-81
2023/11/12 04:22:43;;;;;;;;;;;;;;;4.27;100.00;100222.06;6214535;23;19912;-81
2023/11/12 04:25:09;;;;;;;;;;;;;;;4.31;100.00;100231.41;6216238;23;19919;-82
2023/11/12 04:27:37;;;;;;;;;;;;;;;4.33;100.00;100223.22;6218157;23;19919;-82
2023/11/12 04:30:03;;;;;;;;;;;;;;;4.36;100.00;100215.72;6217679;23;19915;-82
2023/11/12 04:32:28;;;;;;;;;;;;;;;4.38;100.00;100224.38;6217649;23;19911;-82
2023/11/12 04:34:54;;;;;;;;;;;;;;;4.47;100.00;100225.19;6215355;23;19970;-82
2023/11/12 04:37:19;;;;;;;;;;;;;;;4.48;100.00;100223.34;6213002;23;19912;-82
2023/11/12 04:39:45;;;;;;;;;;;;;;;4.49;100.00;100233.00;6214259;23;19915;-81
2023/11/12 04:42:10;;;;;;;;;;;;;;;4.51;100.00;100223.81;6217114;23;19912;-82
2023/11/12 04:44:35;;;;;;;;;;;;;;;4.55;100.00;100230.47;6213974;23;19915;-82
2023/11/12 04:47:01;;;;;;;;;;;;;;;4.56;100.00;100231.31;6214420;23;19912;-81
2023/11/12 04:49:26;;;;;;;;;;;;;;;4.59;100.00;100225.63;6215713;23;20317;-82
2023/11/12 04:51:53;;;;;;;;;;;;;;;4.65;100.00;100227.59;6212631;23;20369;-82
2023/11/12 04:54:19;;;;;;;;;;;;;;;4.51;100.00;100228.34;6214397;23;19916;-82
2023/11/12 04:57:16;;;;;;;;;;;;;;;4.48;100.00;100223.34;6215573;23;20420;-82
2023/11/12 05:03:16;;;;;;;;;;;;;;;4.61;100.00;100228.13;6214521;23;20397;-82
2023/11/12 05:05:41;;;;;;;;;;;;;;;4.59;100.00;100228.28;6213119;23;19932;-82
2023/11/12 05:11:47;;;;;;;;;;;;;;;4.55;100.00;100235.00;6212925;23;19982;-82
2023/11/12 05:17:15;;;;;;;;;;;;;;;4.52;100.00;100238.00;6213999;23;19922;-82
2023/11/12 05:19:41;;;;;;;;;;;;;;;4.54;100.00;100242.13;6214049;23;19947;-81
2023/11/12 05:22:32;;;;;;;;;;;;;;;4.55;100.00;100240.31;6214508;23;19919;-81
2023/11/12 05:24:57;;;;;;;;;;;;;;;4.49;100.00;100239.19;6229079;23;19916;-80
2023/11/12 05:27:22;;;;;;;;;;;;;;;4.40;100.00;100233.03;6229481;23;19923;-81
2023/11/12 05:29:47;;;;;;;;;;;;;;;4.38;100.00;100232.38;6224606;23;19986;-81
2023/11/12 05:32:13;;;;;;;;;;;;;;;4.45;100.00;100239.66;6187821;23;20431;-82
2023/11/12 05:34:39;;;;;;;;;;;;;;;4.36;100.00;100242.38;6216072;23;19919;-81
2023/11/12 05:37:04;;;;;;;;;;;;;;;4.42;100.00;100248.00;6213199;23;19965;-82
2023/11/12 05:39:29;;;;;;;;;;;;;;;4.42;100.00;100250.66;6213195;23;20078;-81
2023/11/12 05:41:57;;;;;;;;;;;;;;;4.38;100.00;100253.69;6214433;23;20248;-81
2023/11/12 05:44:22;;;;;;;;;;;;;;;4.41;100.00;100247.19;6213853;23;20059;-81
2023/11/12 05:46:48;;;;;;;;;;;;;;;4.40;100.00;100249.03;6213129;23;20256;-81
2023/11/12 05:49:13;;;;;;;;;;;;;;;4.38;100.00;100248.38;6215598;23;19919;-81
2023/11/12 05:51:38;;;;;;;;;;;;;;;4.44;100.00;100251.34;6215748;23;19942;-80
2023/11/12 05:54:04;;;;;;;;;;;;;;;4.44;100.00;100249.50;6215003;23;19919;-81
2023/11/12 05:56:29;;;;;;;;;;;;;;;4.44;100.00;100254.84;6216674;23;19919;-80
2023/11/12 05:58:54;;;;;;;;;;;;;;;4.39;100.00;100263.34;6193129;23;20232;-81
2023/11/12 06:01:22;;;;;;;;;;;;;;;4.42;100.00;100253.34;6218816;23;20237;-81
2023/11/12 06:03:47;;;;;;;;;;;;;;;4.40;100.00;100253.53;6217121;23;20191;-81
2023/11/12 06:06:13;;;;;;;;;;;;;;;4.42;100.00;100256.84;6213597;23;19912;-81
2023/11/12 06:08:38;;;;;;;;;;;;;;;4.42;100.00;100256.00;6212092;23;20003;-81
2023/11/12 06:11:06;;;;;;;;;;;;;;;4.42;100.00;100259.50;6214222;23;19940;-81
2023/11/12 06:13:32;;;;;;;;;;;;;;;4.43;100.00;100257.66;6213847;23;20308;-81
2023/11/12 06:15:57;;;;;;;;;;;;;;;4.45;100.00;100271.66;6214453;23;19915;-81
2023/11/12 06:18:22;;;;;;;;;;;;;;;4.45;100.00;100269.00;6215894;23;19911;-81
2023/11/12 06:20:48;;;;;;;;;;;;;;;4.39;100.00;100268.69;6216077;23;20221;-81
2023/11/12 06:23:14;;;;;;;;;;;;;;;4.43;100.00;100273.66;6214480;23;19912;-81
2023/11/12 06:25:39;;;;;;;;;;;;;;;4.42;100.00;100270.16;6216111;23;20355;-81
2023/11/12 06:28:04;;;;;;;;;;;;;;;4.43;100.00;100271.00;6215937;23;20316;-81
2023/11/12 06:30:30;;;;;;;;;;;;;;;4.41;100.00;100271.16;6213014;23;19916;-81
2023/11/12 06:32:56;;;;;;;;;;;;;;;4.36;100.00;100274.34;6215546;23;19911;-81
2023/11/12 06:35:21;;;;;;;;;;;;;;;4.31;100.00;100282.03;6214488;23;19912;-81
2023/11/12 06:37:46;;;;;;;;;;;;;;;4.22;100.00;100272.41;6214059;23;20125;-80
2023/11/12 06:40:14;;;;;;;;;;;;;;;4.23;100.00;100282.06;6215570;23;20321;-81
2023/11/12 06:42:41;;;;;;;;;;;;;;;4.23;100.00;100277.53;6214442;23;19923;-81
2023/11/12 06:45:06;;;;;;;;;;;;;;;4.27;100.00;100279.88;6213743;23;20241;-81
2023/11/12 06:47:32;;;;;;;;;;;;;;;4.23;100.00;100280.22;6214336;23;19919;-82
2023/11/12 06:49:57;;;;;;;;;;;;;;;4.14;100.00;100270.59;6215929;23;19920;-81
2023/11/12 06:52:23;;;;;;;;;;;;;;;4.06;100.00;100268.72;6216126;23;19919;-82
2023/11/12 06:54:48;;;;;;;;;;;;;;;3.96;100.00;100281.41;6216149;23;19919;-81
2023/11/12 06:57:14;;;;;;;;;;;;;;;3.90;100.00;100279.41;6215068;23;19915;-81
2023/11/12 07:05:16;;;;;;;;;;;;;;;3.81;100.00;100294.53;6154419;23;19925;-81
2023/11/12 07:11:01;;;;;;;;;;;;;;;3.90;100.00;100306.03;6063569;23;19920;-81
2023/11/12 07:13:26;;;;;;;;;;;;;;;4.04;100.00;100309.88;6147760;23;20003;-82
2023/11/12 07:15:51;;;;;;;;;;;;;;;4.08;100.00;100309.34;6154542;23;19956;-82
2023/11/12 07:18:35;;;;;;;;;;;;;;;4.14;100.00;100305.22;6154466;23;19944;-82
2023/11/12 07:24:40;;;;;;;;;;;;;;;4.24;100.00;100319.16;6154085;23;19919;-81
2023/11/12 07:30:14;;;;;;;;;;;;;;;4.40;100.00;100312.16;6215271;23;19918;-83
2023/11/12 07:32:40;;;;;;;;;;;;;;;4.45;100.00;100314.28;6214697;23;19938;-83
2023/11/12 07:40:55;;;;;;;;;;;;;;;4.54;100.00;100321.28;6192337;22;20606;-82
2023/11/12 07:43:20;;;;;;;;;;;;;;;4.57;100.00;100323.63;6210239;23;19998;-82
2023/11/12 07:46:14;;;;;;;;;;;;;;;4.62;100.00;100315.91;6214544;23;19951;-81
2023/11/12 07:49:02;;;;;;;;;;;;;;;4.68;100.00;100319.72;6215030;23;19919;-82
2023/11/12 07:51:34;;;;;;;;;;;;;;;4.69;100.00;100324.06;6215585;23;19926;-80
2023/11/12 07:57:18;;;;;;;;;;;;;;;4.79;100.00;100326.53;6151300;23;19919;-81
2023/11/12 08:03:14;;;;;;;;;;;;;;;4.83;100.00;100334.03;6152063;23;19979;-80
2023/11/12 08:06:16;;;;;;;;;;;;;;;4.93;100.00;100338.31;6151881;23;19917;-80
2023/11/12 08:08:41;;;;;;;;;;;;;;;5.01;100.00;100347.13;6152122;23;20359;-80
2023/11/12 08:11:06;;;;;;;;;;;;;;;4.99;100.00;100343.78;6192888;23;19954;-79
2023/11/12 08:13:32;;;;;;;;;;;;;;;5.11;100.00;100340.75;6217428;23;19919;-79
2023/11/12 08:15:57;;;;;;;;;;;;;;;5.18;100.00;100341.72;6216780;23;19947;-81
2023/11/12 08:18:23;;;;;;;;;;;;;;;5.21;100.00;100351.19;6218945;23;19912;-84
2023/11/12 08:20:48;;;;;;;;;;;;;;;5.25;100.00;100357.84;6215857;23;19944;-78
2023/11/12 08:23:14;;;;;;;;;;;;;;;5.30;100.00;100356.31;6216353;23;19935;-78
2023/11/12 08:25:39;;;;;;;;;;;;;;;5.29;100.00;100353.84;6215275;23;19911;-78
2023/11/12 08:28:04;;;;;;;;;;;;;;;5.31;100.00;100363.31;6212823;23;19912;-78
2023/11/12 08:30:30;;;;;;;;;;;;;;;5.43;100.00;100365.63;6211430;23;19915;-79
2023/11/12 08:32:56;;;;;;;;;;;;;;;5.45;100.00;100363.63;6211892;23;19916;-80
2023/11/12 08:35:21;;;;;;;;;;;;;;;5.52;100.00;100363.75;6210496;23;19919;-79
2023/11/12 08:37:46;;;;;;;;;;;;;;;5.53;100.00;100363.56;6211542;23;20324;-79
2023/11/12 08:40:12;;;;;;;;;;;;;;;5.57;100.00;100370.22;6211723;23;19912;-79
2023/11/12 08:42:37;;;;;;;;;;;;;;;5.59;100.00;100368.19;6208059;23;20241;-80
2023/11/12 08:45:04;;;;;;;;;;;;;;;5.70;100.00;100376.81;6211983;23;19912;-79
2023/11/12 08:47:29;;;;;;;;;;;;;;;5.69;100.00;100369.78;6187178;23;19952;-80
2023/11/12 08:49:54;;;;;;;;;;;;;;;5.68;100.00;100382.34;6217279;23;19931;-80
2023/11/12 08:52:20;;;;;;;;;;;;;;;5.66;100.00;100379.00;6217243;23;19912;-80
2023/11/12 08:54:45;;;;;;;;;;;;;;;5.69;100.00;100388.50;6212481;23;19935;-79
2023/11/12 08:57:10;;;;;;;;;;;;;;;5.72;100.00;100393.50;6212367;23;19912;-78
2023/11/12 08:59:36;;;;;;;;;;;;;;;5.73;100.00;100400.50;6212913;23;19916;-78
2023/11/12 09:02:06;;;;;;;;;;;;;;;5.75;100.00;100395.81;6213472;23;19912;-79
2023/11/12 09:04:31;;;;;;;;;;;;;;;5.76;100.00;100397.47;6212101;23;20343;-79
2023/11/12 09:06:56;;;;;;;;;;;;;;;5.80;100.00;100401.47;6211806;23;19916;-78
2023/11/12 09:09:21;;;;;;;;;;;;;;;5.82;100.00;100398.59;6216322;23;19938;-78
2023/11/12 09:11:47;;;;;;;;;;;;;;;5.81;100.00;100399.59;6221940;23;19923;-77
2023/11/12 09:14:15;;;;;;;;;;;;;;;5.86;100.00;100403.41;6230740;23;19923;-75
2023/11/12 09:16:44;;;;;;;;;;;;;;;5.90;100.00;100402.06;6216103;23;19914;-77
2023/11/12 09:19:09;;;;;;;;;;;;;;;6.04;100.00;100399.66;6213150;23;20249;-77
2023/11/12 09:21:34;;;;;;;;;;;;;;;6.20;100.00;100401.38;6212400;23;19916;-77
2023/11/12 09:24:00;;;;;;;;;;;;;;;6.37;100.00;100399.38;6211979;23;19919;-76
2023/11/12 09:26:25;;;;;;;;;;;;;;;6.40;100.00;100408.91;6211358;23;19919;-76
2023/11/12 09:28:50;;;;;;;;;;;;;;;6.46;100.00;100405.47;6211441;23;20014;-76
2023/11/12 09:31:16;;;;;;;;;;;;;;;6.51;100.00;100403.09;6210312;23;20078;-76
2023/11/12 09:33:41;;;;;;;;;;;;;;;6.46;100.00;100400.97;6212485;23;19916;-76
2023/11/12 09:36:06;;;;;;;;;;;;;;;6.64;100.00;100403.31;6184855;23;19962;-76
2023/11/12 09:38:35;;;;;;;;;;;;;;;6.79;100.00;100392.63;6211661;23;20046;-77
2023/11/12 09:41:01;;;;;;;;;;;;;;;6.90;100.00;100393.19;6213072;23;19983;-77
2023/11/12 09:43:28;;;;;;;;;;;;;;;7.06;100.00;100386.81;6187654;23;20248;-78
2023/11/12 09:45:55;;;;;;;;;;;;;;;7.02;100.00;100391.72;6188040;23;19965;-77
2023/11/12 09:48:23;;;;;;;;;;;;;;;7.39;100.00;100395.28;6191999;23;19916;-77
2023/11/12 09:50:49;;;;;;;;;;;;;;;7.57;99.42;100392.19;6216474;23;19912;-78
2023/11/12 09:53:15;;;;;;;;;;;;;;;7.79;97.43;100399.44;6217472;23;20222;-77
2023/11/12 09:55:40;;;;;;;;;;;;;;;7.85;96.41;100396.00;6218571;23;20379;-78
2023/11/12 09:58:05;;;;;;;;;;;;;;;7.86;95.98;100390.44;6216820;23;19916;-78
2023/11/12 10:00:33;;;;;;;;;;;;;;;7.95;95.40;100391.13;6212856;23;19912;-78
2023/11/12 10:02:58;;;;;;;;;;;;;;;7.89;94.27;100383.88;6215886;23;19916;-78
2023/11/12 10:05:28;;;;;;;;;;;;;;;8.07;95.35;100385.28;6217795;23;19962;-78
2023/11/12 10:07:53;;;;;;;;;;;;;;;8.14;93.79;100394.22;6216071;23;19919;-78
2023/11/12 10:10:21;;;;;;;;;;;;;;;8.17;94.03;100392.00;6191000;23;19999;-78
2023/11/12 10:12:47;;;;;;;;;;;;;;;8.22;92.03;100383.38;6216139;23;19916;-78
2023/11/12 10:15:12;;;;;;;;;;;;;;;8.17;92.68;100393.81;6213480;23;19900;-78
2023/11/12 10:17:44;;;;;;;;;;;;;;;8.18;92.25;100387.44;6216096;23;19923;-78
2023/11/12 10:20:11;;;;;;;;;;;;;;;8.13;93.62;100387.19;6213971;23;19912;-77
2023/11/12 10:22:38;;;;;;;;;;;;;;;8.38;92.34;100389.47;6212711;23;19915;-78
2023/11/12 10:25:03;;;;;;;;;;;;;;;8.47;91.75;100396.38;6214787;23;19912;-76
2023/11/12 10:27:29;;;;;;;;;;;;;;;8.45;90.61;100385.81;6212108;23;20005;-76
2023/11/12 10:29:54;;;;;;;;;;;;;;;8.39;91.17;100386.59;6212521;23;19915;-76
2023/11/12 10:32:25;;;;;;;;;;;;;;;8.21;91.97;100389.75;6217806;23;19912;-76
2023/11/12 10:34:50;;;;;;;;;;;;;;;8.10;92.53;100382.22;6217957;23;19920;-76
2023/11/12 10:37:19;;;;;;;;;;;;;;;8.31;91.17;100387.56;6216008;23;19986;-76
2023/11/12 10:39:44;;;;;;;;;;;;;;;8.16;93.07;100393.00;6216339;23;19922;-76
2023/11/12 10:42:24;;;;;;;;;;;;;;;8.37;90.55;100393.16;6215679;23;19990;-76
2023/11/12 10:44:54;;;;;;;;;;;;;;;8.27;91.42;100394.34;6213201;23;19939;-76
2023/11/12 10:47:19;;;;;;;;;;;;;;;8.21;91.82;100389.75;6215538;23;20287;-77
2023/11/12 10:49:45;;;;;;;;;;;;;;;8.12;93.46;100386.38;6185296;23;19908;-77
2023/11/12 10:52:12;;;;;;;;;;;;;;;8.04;94.30;100398.06;6186494;23;19911;-76
2023/11/12 10:54:37;;;;;;;;;;;;;;;8.15;93.58;100390.50;6214104;23;19911;-76
2023/11/12 10:57:03;;;;;;;;;;;;;;;8.39;92.98;100389.25;6213139;23;20210;-77
2023/11/12 10:59:28;;;;;;;;;;;;;;;8.42;94.43;100385.38;6185569;23;20348;-77
2023/11/12 11:01:54;;;;;;;;;;;;;;;8.59;93.05;100386.78;6214494;23;19919;-76
2023/11/12 11:04:19;;;;;;;;;;;;;;;8.79;91.28;100386.09;6212317;23;20018;-76
2023/11/12 11:06:44;;;;;;;;;;;;;;;8.83;90.57;100392.69;6217259;23;19912;-76
2023/11/12 11:09:10;;;;;;;;;;;;;;;8.99;89.46;100377.34;6218466;23;19918;-76
2023/11/12 11:11:36;;;;;;;;;;;;;;;8.94;88.48;100384.13;6212834;23;19916;-76
2023/11/12 11:14:20;;;;;;;;;;;;;;;8.90;88.36;100382.84;6187222;23;19919;-76
2023/11/12 11:16:47;;;;;;;;;;;;;;;9.02;88.21;100382.28;6212766;23;20360;-76
2023/11/12 11:19:12;;;;;;;;;;;;;;;8.82;89.99;100388.38;6213494;23;19922;-76
2023/11/12 11:21:40;;;;;;;;;;;;;;;8.99;89.19;100378.16;6213511;23;19908;-76
2023/11/12 11:24:05;;;;;;;;;;;;;;;9.32;86.88;100379.34;6214100;23;19918;-76
2023/11/12 11:26:32;;;;;;;;;;;;;;;9.25;86.90;100380.13;6214211;23;19912;-77
2023/11/12 11:29:10;;;;;;;;;;;;;;;8.90;89.64;100373.97;6212940;23;19916;-77
2023/11/12 11:31:41;;;;;;;;;;;;;;;9.24;88.16;100377.66;6212947;23;20260;-77
2023/11/12 11:34:07;;;;;;;;;;;;;;;9.63;86.50;100373.44;6213860;23;19962;-77
2023/11/12 11:36:32;;;;;;;;;;;;;;;9.69;85.84;100374.50;6213080;23;19916;-77
2023/11/12 11:39:10;;;;;;;;;;;;;;;10.05;83.60;100373.34;6212420;23;20111;-76
2023/11/12 11:41:42;;;;;;;;;;;;;;;10.09;82.77;100374.56;6211741;23;19927;-76
2023/11/12 11:44:25;;;;;;;;;;;;;;;9.97;83.62;100376.22;6209970;23;19927;-76
2023/11/12 11:47:09;;;;;;;;;;;;;;;9.92;84.61;100378.69;6211469;23;20248;-76
2023/11/12 11:49:34;;;;;;;;;;;;;;;10.32;81.60;100381.41;6212769;23;20316;-76
2023/11/12 11:52:00;;;;;;;;;;;;;;;10.48;80.62;100382.06;6209346;23;20255;-76
2023/11/12 11:54:25;;;;;;;;;;;;;;;10.30;80.61;100381.63;6212587;23;19994;-76
2023/11/12 11:56:51;;;;;;;;;;;;;;;11.02;79.31;100380.94;6212220;23;20001;-76
2023/11/12 11:59:16;;;;;;;;;;;;;;;11.36;77.64;100383.50;6183935;23;19916;-76
2023/11/12 12:01:42;;;;;;;;;;;;;;;11.82;76.46;100387.03;6213098;23;19916;-76
2023/11/12 12:04:09;;;;;;;;;;;;;;;12.05;73.12;100388.34;6211939;23;19938;-77
2023/11/12 12:06:37;;;;;;;;;;;;;;;12.37;71.03;100393.69;6212231;23;19927;-76
2023/11/12 12:09:02;;;;;;;;;;;;;;;12.11;71.97;100396.38;6187948;23;19919;-76
2023/11/12 12:11:28;;;;;;;;;;;;;;;12.22;71.00;100399.44;6212030;23;20171;-76
2023/11/12 12:13:59;;;;;;;;;;;;;;;11.84;72.92;100395.69;6211793;23;20312;-76
2023/11/12 12:16:28;;;;;;;;;;;;;;;11.32;74.19;100399.25;6218254;23;19912;-77
2023/11/12 12:18:54;;;;;;;;;;;;;;;11.19;73.28;100399.31;6214485;23;19966;-76
2023/11/12 12:21:19;;;;;;;;;;;;;;;10.09;78.11;100406.84;6222363;23;19923;-76
2023/11/12 12:23:45;;;;;;;;;;;;;;;9.49;82.48;100410.22;6214267;23;19912;-76
2023/11/12 12:26:10;;;;;;;;;;;;;;;9.63;83.45;100407.56;6185608;23;19916;-78
2023/11/12 12:28:37;;;;;;;;;;;;;;;9.96;83.34;100406.81;6211572;23;19939;-77
2023/11/12 12:31:05;;;;;;;;;;;;;;;10.79;79.49;100404.78;6211132;23;20333;-75
2023/11/12 12:33:35;;;;;;;;;;;;;;;10.71;79.62;100406.69;6183969;23;19999;-78
2023/11/12 12:36:08;;;;;;;;;;;;;;;11.31;76.77;100405.69;6211024;23;20390;-77
2023/11/12 12:38:33;;;;;;;;;;;;;;;11.96;72.70;100409.31;6212665;23;19911;-77
2023/11/12 12:41:05;;;;;;;;;;;;;;;11.96;68.19;100412.03;6210880;23;19919;-77
2023/11/12 12:43:47;;;;;;;;;;;;;;;12.22;67.16;100407.53;6212041;23;19930;-77
2023/11/12 12:46:13;;;;;;;;;;;;;;;12.22;66.43;100411.03;6213063;23;19916;-76
2023/11/12 12:48:54;;;;;;;;;;;;;;;12.99;64.79;100414.53;6216999;23;19916;-76
2023/11/12 12:51:19;;;;;;;;;;;;;;;14.21;59.86;100412.78;6224172;23;19919;-75
2023/11/12 12:53:45;;;;;;;;;;;;;;;14.41;58.15;100414.34;6214841;23;19951;-76
2023/11/12 12:56:13;;;;;;;;;;;;;;;15.12;55.95;100406.25;6209918;23;20578;-76
2023/11/12 12:58:38;;;;;;;;;;;;;;;15.84;53.07;100416.88;6210046;23;19919;-76
2023/11/12 13:01:04;;;;;;;;;;;;;;;14.68;56.93;100412.06;6210831;23;19983;-76
2023/11/12 13:03:33;;;;;;;;;;;;;;;15.56;54.10;100410.41;6209689;23;19944;-76
2023/11/12 13:05:59;;;;;;;;;;;;;;;14.86;55.39;100413.00;6210148;23;19916;-75
2023/11/12 13:08:25;;;;;;;;;;;;;;;15.51;53.29;100405.69;6211585;23;19912;-76
2023/11/12 13:10:50;;;;;;;;;;;;;;;15.74;53.11;100412.09;6209806;23;19934;-75
2023/11/12 13:13:19;;;;;;;;;;;;;;;14.91;55.60;100410.41;6209793;23;20002;-76
2023/11/12 13:15:46;;;;;;;;;;;;;;;15.08;54.14;100401.53;6217322;23;19938;-76
2023/11/12 13:18:12;;;;;;;;;;;;;;;14.96;55.03;100407.81;6223380;23;19942;-76
2023/11/12 13:20:37;;;;;;;;;;;;;;;13.74;58.38;100408.06;6223197;23;20297;-76
2023/11/12 13:23:02;;;;;;;;;;;;;;;13.49;60.38;100405.50;6214990;23;19970;-76
2023/11/12 13:25:27;;;;;;;;;;;;;;;13.73;59.89;100406.41;6211565;23;19911;-76
2023/11/12 13:27:54;;;;;;;;;;;;;;;13.79;59.32;100402.78;6211689;23;19912;-76
2023/11/12 13:30:19;;;;;;;;;;;;;;;13.51;60.51;100410.66;6211032;23;19916;-76
2023/11/12 13:32:46;;;;;;;;;;;;;;;13.11;61.29;100401.13;6209859;23;20256;-76
2023/11/12 13:35:12;;;;;;;;;;;;;;;12.48;64.34;100408.34;6210235;23;19951;-76
2023/11/12 13:37:38;;;;;;;;;;;;;;;12.40;65.28;100398.66;6210626;23;19974;-76
2023/11/12 13:40:13;;;;;;;;;;;;;;;13.24;63.11;100419.06;6213104;23;19916;-76
2023/11/12 13:42:39;;;;;;;;;;;;;;;13.82;59.96;100411.50;6212895;23;19950;-76
2023/11/12 13:45:04;;;;;;;;;;;;;;;13.76;60.16;100405.97;6210861;23;19990;-76
2023/11/12 13:47:30;;;;;;;;;;;;;;;12.85;62.79;100406.59;6212807;23;20026;-76
2023/11/12 13:49:55;;;;;;;;;;;;;;;11.93;67.44;100405.19;6214570;23;20212;-76
2023/11/12 13:52:22;;;;;;;;;;;;;;;11.55;67.90;100408.72;6212928;23;20285;-75